Time;durP1;ratioP1;P1;durP2;ratioP2;P2;SDS_P1;SDS_P2;PMS_P1;PMS_P2;Temp;Humidity;BMP_temperature;BMP_pressure;BME280_temperature;BME280_humidity;BME280_pressure;Samples;Min_cycle;Max_cycle;Signal;HPM_P1;HPM_P2
2022/10/04 00:00:37;;;;;;;3.07;0.93;;;;;;;;;;4935649;28;20222;-75
2022/10/04 00:03:16;;;;;;;3.07;2.23;;;;;;;;;;4959584;28;20285;-75
2022/10/04 00:05:49;;;;;;;6.83;4.03;;;;;;;;;;4955611;28;20721;-75
2022/10/04 00:08:31;;;;;;;10.70;7.20;;;;;;;;;;4967896;28;20314;-74
2022/10/04 00:11:06;;;;;;;10.47;5.47;;;;;;;;;;4962933;28;20226;-74
2022/10/04 00:13:32;;;;;;;6.97;5.03;;;;;;;;;;4997308;28;20276;-75
2022/10/04 00:16:00;;;;;;;4.73;3.13;;;;;;;;;;4979081;28;20238;-75
2022/10/04 00:18:32;;;;;;;6.10;2.17;;;;;;;;;;4943025;28;20301;-74
2022/10/04 00:21:01;;;;;;;2.50;1.87;;;;;;;;;;4965169;28;20592;-75
2022/10/04 00:23:30;;;;;;;10.80;3.13;;;;;;;;;;4990072;28;20293;-75
2022/10/04 00:26:05;;;;;;;6.13;3.67;;;;;;;;;;4983171;28;20234;-75
2022/10/04 00:28:38;;;;;;;35.03;20.03;;;;;;;;;;4958113;28;20739;-75
2022/10/04 00:31:12;;;;;;;53.27;24.37;;;;;;;;;;4971896;28;20247;-75
2022/10/04 00:33:38;;;;;;;32.33;16.83;;;;;;;;;;4965930;28;20309;-74
2022/10/04 00:36:25;;;;;;;50.87;25.40;;;;;;;;;;4976482;28;20235;-75
2022/10/04 00:39:05;;;;;;;28.87;12.83;;;;;;;;;;4989478;28;20298;-75
2022/10/04 00:41:46;;;;;;;30.97;14.20;;;;;;;;;;4955469;28;20226;-75
2022/10/04 00:44:20;;;;;;;83.07;35.00;;;;;;;;;;4965683;28;20233;-74
2022/10/04 00:46:48;;;;;;;56.80;25.57;;;;;;;;;;4992647;28;20221;-75
2022/10/04 00:49:13;;;;;;;34.27;14.93;;;;;;;;;;4953687;28;20696;-75
2022/10/04 00:51:53;;;;;;;29.70;11.53;;;;;;;;;;4960910;28;20233;-75
2022/10/04 00:54:40;;;;;;;7.73;4.60;;;;;;;;;;4987808;28;20230;-73
2022/10/04 00:57:13;;;;;;;8.70;5.20;;;;;;;;;;4957376;28;20230;-74
2022/10/04 00:59:43;;;;;;;16.43;7.23;;;;;;;;;;4954200;28;20601;-75
2022/10/04 01:02:14;;;;;;;6.33;2.90;;;;;;;;;;4985129;28;20233;-75
2022/10/04 01:04:44;;;;;;;2.67;1.87;;;;;;;;;;4986703;28;20226;-75
2022/10/04 01:07:10;;;;;;;4.93;2.00;;;;;;;;;;4962592;28;20210;-75
2022/10/04 01:09:42;;;;;;;3.40;1.87;;;;;;;;;;4946714;28;20263;-75
2022/10/04 01:12:16;;;;;;;3.50;1.90;;;;;;;;;;4990995;28;20218;-75
2022/10/04 01:14:53;;;;;;;3.07;2.13;;;;;;;;;;4972055;28;20228;-75
2022/10/04 01:17:23;;;;;;;7.33;3.13;;;;;;;;;;4978470;28;20440;-75
2022/10/04 01:19:52;;;;;;;6.97;2.77;;;;;;;;;;4950404;28;20228;-74
2022/10/04 01:22:32;;;;;;;9.97;5.53;;;;;;;;;;4989617;28;20210;-75
2022/10/04 01:24:58;;;;;;;7.33;4.80;;;;;;;;;;4968610;28;20325;-75
2022/10/04 01:27:42;;;;;;;9.63;4.50;;;;;;;;;;4950217;28;20285;-75
2022/10/04 01:30:13;;;;;;;9.33;3.93;;;;;;;;;;4987185;28;20238;-75
2022/10/04 01:32:41;;;;;;;6.80;4.03;;;;;;;;;;4988222;28;20598;-74
2022/10/04 01:35:08;;;;;;;5.73;3.20;;;;;;;;;;4958826;28;20230;-76
2022/10/04 01:37:33;;;;;;;5.33;2.50;;;;;;;;;;4945419;28;20779;-74
2022/10/04 01:40:04;;;;;;;7.93;2.80;;;;;;;;;;4949833;28;20396;-74
2022/10/04 01:42:38;;;;;;;5.00;3.00;;;;;;;;;;4974829;28;20229;-74
2022/10/04 01:45:07;;;;;;;8.20;2.10;;;;;;;;;;4961269;28;20787;-74
2022/10/04 01:47:36;;;;;;;5.33;2.47;;;;;;;;;;4971395;28;20307;-75
2022/10/04 01:50:08;;;;;;;2.00;1.70;;;;;;;;;;4977292;28;20234;-74
2022/10/04 01:52:43;;;;;;;4.73;2.27;;;;;;;;;;4959670;28;20265;-74
2022/10/04 01:55:13;;;;;;;2.83;2.40;;;;;;;;;;4923465;28;20227;-75
2022/10/04 01:58:12;;;;;;;7.20;2.27;;;;;;;;;;4956640;28;20615;-74
2022/10/04 02:00:40;;;;;;;3.30;2.03;;;;;;;;;;4968234;28;20234;-74
2022/10/04 02:03:25;;;;;;;4.07;1.90;;;;;;;;;;4980390;28;20298;-74
2022/10/04 02:05:53;;;;;;;3.03;1.87;;;;;;;;;;4962511;28;20239;-72
2022/10/04 02:08:29;;;;;;;4.53;1.50;;;;;;;;;;4958229;28;21178;-74
2022/10/04 02:10:56;;;;;;;4.33;1.73;;;;;;;;;;4958640;28;20222;-75
2022/10/04 02:13:24;;;;;;;3.83;2.10;;;;;;;;;;4940306;28;20231;-75
2022/10/04 02:15:50;;;;;;;4.73;2.10;;;;;;;;;;4950384;28;20836;-75
2022/10/04 02:18:17;;;;;;;6.17;2.47;;;;;;;;;;4966650;28;20237;-74
2022/10/04 02:20:45;;;;;;;3.53;2.20;;;;;;;;;;4954513;28;20215;-75
2022/10/04 02:23:11;;;;;;;6.73;2.83;;;;;;;;;;4954168;28;20245;-75
2022/10/04 02:25:38;;;;;;;8.10;2.40;;;;;;;;;;4966598;28;20253;-74
2022/10/04 02:28:12;;;;;;;5.43;2.30;;;;;;;;;;4954011;28;20317;-75
2022/10/04 02:30:42;;;;;;;8.00;2.60;;;;;;;;;;4962690;28;20701;-74
2022/10/04 02:33:10;;;;;;;3.30;2.40;;;;;;;;;;4967776;28;20284;-75
2022/10/04 02:35:47;;;;;;;2.53;1.50;;;;;;;;;;4965981;28;20242;-75
2022/10/04 02:38:22;;;;;;;4.60;1.90;;;;;;;;;;4965544;28;20223;-74
2022/10/04 02:41:08;;;;;;;2.80;2.00;;;;;;;;;;4970177;28;20225;-74
2022/10/04 02:44:03;;;;;;;3.30;1.43;;;;;;;;;;4965626;28;20227;-74
2022/10/04 02:46:35;;;;;;;4.50;1.87;;;;;;;;;;4992166;28;20684;-74
2022/10/04 02:49:04;;;;;;;3.20;2.10;;;;;;;;;;4950005;28;20238;-75
2022/10/04 02:51:32;;;;;;;5.00;2.53;;;;;;;;;;4975633;28;20316;-75
2022/10/04 02:54:08;;;;;;;5.77;2.57;;;;;;;;;;4984128;28;20229;-74
2022/10/04 02:56:36;;;;;;;5.27;3.23;;;;;;;;;;4959014;28;20929;-74
2022/10/04 02:59:04;;;;;;;7.73;3.27;;;;;;;;;;4959066;28;20219;-74
2022/10/04 03:02:00;;;;;;;6.03;3.27;;;;;;;;;;4962429;28;20227;-75
2022/10/04 03:04:35;;;;;;;5.73;3.20;;;;;;;;;;4965359;28;20254;-75
2022/10/04 03:07:01;;;;;;;4.40;2.87;;;;;;;;;;4970388;28;20226;-74
2022/10/04 03:09:31;;;;;;;5.23;3.10;;;;;;;;;;4950123;28;20244;-75
2022/10/04 03:11:57;;;;;;;5.87;2.83;;;;;;;;;;4946411;28;20226;-74
2022/10/04 03:14:26;;;;;;;4.90;3.17;;;;;;;;;;4952670;28;20241;-74
2022/10/04 03:16:53;;;;;;;3.50;2.30;;;;;;;;;;4976381;28;20846;-75
2022/10/04 03:19:25;;;;;;;5.30;2.00;;;;;;;;;;4964018;28;20230;-74
2022/10/04 03:21:53;;;;;;;6.27;2.73;;;;;;;;;;4955081;28;20273;-74
2022/10/04 03:24:22;;;;;;;9.97;2.40;;;;;;;;;;4949011;28;20297;-73
2022/10/04 03:26:53;;;;;;;4.73;1.97;;;;;;;;;;4952088;28;20230;-72
2022/10/04 03:29:23;;;;;;;7.70;2.60;;;;;;;;;;4975073;28;20666;-72
2022/10/04 03:31:55;;;;;;;4.70;2.20;;;;;;;;;;4964542;28;20370;-74
2022/10/04 03:34:25;;;;;;;3.47;2.30;;;;;;;;;;4945030;28;20758;-73
2022/10/04 03:36:52;;;;;;;3.60;2.37;;;;;;;;;;4948508;28;20805;-73
2022/10/04 03:39:32;;;;;;;4.77;2.57;;;;;;;;;;4961250;28;20301;-74
2022/10/04 03:41:58;;;;;;;4.23;2.20;;;;;;;;;;4958517;28;20229;-74
2022/10/04 03:44:24;;;;;;;4.77;2.47;;;;;;;;;;4978556;28;20222;-73
2022/10/04 03:46:51;;;;;;;5.67;2.50;;;;;;;;;;4976693;28;20222;-74
2022/10/04 03:49:31;;;;;;;4.73;2.47;;;;;;;;;;4954701;28;20234;-74
2022/10/04 03:51:59;;;;;;;5.33;2.70;;;;;;;;;;4978032;28;20238;-74
2022/10/04 03:54:28;;;;;;;4.67;2.83;;;;;;;;;;4991391;28;20257;-74
2022/10/04 03:56:53;;;;;;;4.30;2.60;;;;;;;;;;4960234;28;20643;-74
2022/10/04 03:59:19;;;;;;;3.70;2.17;;;;;;;;;;4959898;28;20230;-73
2022/10/04 04:01:52;;;;;;;3.07;2.13;;;;;;;;;;4966479;28;20225;-73
2022/10/04 04:04:21;;;;;;;5.73;2.20;;;;;;;;;;4941052;28;20748;-74
2022/10/04 04:06:51;;;;;;;2.90;2.20;;;;;;;;;;4961116;28;20723;-74
2022/10/04 04:09:22;;;;;;;4.00;2.30;;;;;;;;;;4962688;28;20246;-74
2022/10/04 04:11:50;;;;;;;3.27;2.27;;;;;;;;;;4950619;28;20231;-74
2022/10/04 04:14:23;;;;;;;5.07;2.43;;;;;;;;;;4967945;28;20735;-74
2022/10/04 04:16:52;;;;;;;4.87;2.40;;;;;;;;;;4988414;28;20611;-75
2022/10/04 04:19:27;;;;;;;4.90;2.50;;;;;;;;;;4959877;28;20222;-72
2022/10/04 04:21:55;;;;;;;4.57;2.37;;;;;;;;;;4974459;28;20708;-72
2022/10/04 04:24:27;;;;;;;3.90;2.27;;;;;;;;;;4966862;28;20288;-73
2022/10/04 04:26:57;;;;;;;5.07;2.63;;;;;;;;;;4951420;28;20230;-73
2022/10/04 04:29:29;;;;;;;4.53;2.67;;;;;;;;;;4980119;28;20226;-72
2022/10/04 04:31:57;;;;;;;3.20;2.60;;;;;;;;;;4958019;28;20226;-73
2022/10/04 04:34:32;;;;;;;4.67;3.00;;;;;;;;;;4983085;28;20226;-73
2022/10/04 04:37:03;;;;;;;5.63;3.10;;;;;;;;;;4950603;28;20957;-74
2022/10/04 04:39:42;;;;;;;4.73;3.00;;;;;;;;;;4955724;28;20283;-74
2022/10/04 04:42:13;;;;;;;4.73;3.20;;;;;;;;;;4957767;28;20669;-73
2022/10/04 04:44:53;;;;;;;5.13;2.63;;;;;;;;;;4975936;28;20223;-74
2022/10/04 04:47:43;;;;;;;4.80;2.60;;;;;;;;;;4963506;28;20229;-73
2022/10/04 04:50:19;;;;;;;4.47;2.63;;;;;;;;;;4970538;28;20641;-73
2022/10/04 04:52:49;;;;;;;3.13;2.70;;;;;;;;;;4962064;28;20219;-75
2022/10/04 04:55:25;;;;;;;5.33;3.00;;;;;;;;;;4959862;28;20771;-74
2022/10/04 04:57:54;;;;;;;4.30;2.97;;;;;;;;;;4974294;28;20217;-74
2022/10/04 05:00:27;;;;;;;3.47;2.80;;;;;;;;;;4960708;28;20239;-74
2022/10/04 05:02:54;;;;;;;4.67;2.90;;;;;;;;;;4966130;28;20701;-74
2022/10/04 05:05:31;;;;;;;5.13;3.47;;;;;;;;;;4960863;28;20234;-74
2022/10/04 05:08:09;;;;;;;4.07;3.00;;;;;;;;;;4955772;28;20239;-73
2022/10/04 05:10:37;;;;;;;5.37;3.60;;;;;;;;;;4954245;28;20230;-74
2022/10/04 05:13:07;;;;;;;5.57;4.10;;;;;;;;;;4948642;28;20231;-74
2022/10/04 05:15:39;;;;;;;9.70;5.10;;;;;;;;;;4951188;28;20618;-73
2022/10/04 05:18:27;;;;;;;4.83;4.33;;;;;;;;;;4949431;28;20226;-74
2022/10/04 05:20:56;;;;;;;4.93;4.43;;;;;;;;;;4954329;28;20306;-73
2022/10/04 05:23:21;;;;;;;4.87;4.30;;;;;;;;;;4973799;28;20256;-73
2022/10/04 05:25:50;;;;;;;7.10;4.37;;;;;;;;;;4960027;28;20234;-74
2022/10/04 05:28:16;;;;;;;8.17;4.30;;;;;;;;;;4958603;28;20297;-74
2022/10/04 05:30:54;;;;;;;6.90;3.87;;;;;;;;;;4950950;28;20292;-73
2022/10/04 05:33:40;;;;;;;7.67;4.93;;;;;;;;;;4968874;28;20596;-74
2022/10/04 05:36:13;;;;;;;8.57;7.67;;;;;;;;;;4955243;28;20238;-73
2022/10/04 05:38:56;;;;;;;8.57;5.80;;;;;;;;;;4976358;28;20218;-73
2022/10/04 05:41:30;;;;;;;9.20;5.20;;;;;;;;;;4974149;28;20296;-74
2022/10/04 05:44:01;;;;;;;6.70;5.60;;;;;;;;;;4958655;28;20253;-75
2022/10/04 05:46:35;;;;;;;9.07;4.87;;;;;;;;;;4967791;28;20223;-74
2022/10/04 05:49:05;;;;;;;8.93;5.17;;;;;;;;;;4950222;28;20272;-73
2022/10/04 05:51:36;;;;;;;5.53;5.03;;;;;;;;;;4973677;28;20282;-74
2022/10/04 05:54:06;;;;;;;7.20;5.10;;;;;;;;;;4945971;28;20721;-74
2022/10/04 05:56:40;;;;;;;9.50;5.60;;;;;;;;;;4953359;28;20713;-74
2022/10/04 05:59:43;;;;;;;7.47;4.63;;;;;;;;;;4962568;28;20307;-74
2022/10/04 06:02:21;;;;;;;12.83;5.50;;;;;;;;;;4988049;28;20213;-74
2022/10/04 06:05:07;;;;;;;6.47;5.23;;;;;;;;;;4980800;28;20235;-73
2022/10/04 06:07:45;;;;;;;5.63;4.80;;;;;;;;;;4978556;28;20685;-75
2022/10/04 06:10:29;;;;;;;7.50;5.40;;;;;;;;;;4975941;28;20771;-74
2022/10/04 06:13:17;;;;;;;7.73;5.50;;;;;;;;;;4962884;28;20233;-74
2022/10/04 06:15:58;;;;;;;7.10;4.60;;;;;;;;;;4990624;28;20231;-73
2022/10/04 06:18:49;;;;;;;7.40;4.73;;;;;;;;;;4967739;28;20225;-74
2022/10/04 06:21:24;;;;;;;9.83;5.77;;;;;;;;;;4976008;28;20718;-74
2022/10/04 06:23:58;;;;;;;9.90;6.30;;;;;;;;;;4993166;28;20770;-75
2022/10/04 06:26:42;;;;;;;7.93;5.50;;;;;;;;;;4993678;28;20317;-74
2022/10/04 06:29:13;;;;;;;8.00;5.77;;;;;;;;;;4960515;28;20242;-73
2022/10/04 06:32:07;;;;;;;5.80;5.20;;;;;;;;;;4959968;28;20230;-74
2022/10/04 06:34:36;;;;;;;7.40;5.10;;;;;;;;;;4962568;28;20233;-74
2022/10/04 06:37:21;;;;;;;8.03;6.20;;;;;;;;;;4958391;28;20764;-74
2022/10/04 06:39:58;;;;;;;7.77;6.77;;;;;;;;;;4961262;28;20226;-73
2022/10/04 06:42:54;;;;;;;13.10;10.40;;;;;;;;;;4979092;28;20688;-74
2022/10/04 06:45:45;;;;;;;14.27;9.50;;;;;;;;;;4961270;28;20254;-75
2022/10/04 06:48:33;;;;;;;8.53;7.10;;;;;;;;;;4973157;28;20229;-74
2022/10/04 06:51:31;;;;;;;8.87;7.63;;;;;;;;;;4995589;28;20223;-74
2022/10/04 06:53:57;;;;;;;8.53;7.57;;;;;;;;;;4975761;28;20273;-74
2022/10/04 06:56:37;;;;;;;14.57;9.90;;;;;;;;;;4967966;28;20238;-74
2022/10/04 06:59:03;;;;;;;12.93;9.47;;;;;;;;;;4968114;28;20229;-74
2022/10/04 07:01:35;;;;;;;27.53;21.77;;;;;;;;;;4971560;28;20281;-75
2022/10/04 07:04:03;;;;;;;19.27;16.73;;;;;;;;;;4957059;28;20262;-74
2022/10/04 07:07:22;;;;;;;13.80;12.50;;;;;;;;;;4959439;28;20230;-75
2022/10/04 07:09:45;;;;;;;11.20;9.87;;;;;;;;;;4960931;28;20234;-74
2022/10/04 07:12:16;;;;;;;10.17;9.27;;;;;;;;;;4938070;28;20304;-74
2022/10/04 07:14:52;;;;;;;10.47;7.87;;;;;;;;;;4953090;28;20234;-74
2022/10/04 07:17:27;;;;;;;12.23;8.03;;;;;;;;;;4959765;28;20784;-73
2022/10/04 07:19:55;;;;;;;12.53;7.93;;;;;;;;;;4937358;28;20238;-74
2022/10/04 07:22:33;;;;;;;8.80;6.60;;;;;;;;;;4960435;28;20253;-74
2022/10/04 07:25:37;;;;;;;8.07;7.17;;;;;;;;;;4953076;28;20313;-73
2022/10/04 07:31:04;;;;;;;8.77;6.03;;;;;;;;;;4966983;28;20226;-75
2022/10/04 07:33:34;;;;;;;10.03;6.23;;;;;;;;;;4961983;28;20218;-74
2022/10/04 07:36:12;;;;;;;7.43;5.57;;;;;;;;;;4952056;28;20281;-75
2022/10/04 07:39:08;;;;;;;13.23;6.23;;;;;;;;;;4979759;28;20226;-74
2022/10/04 07:41:38;;;;;;;9.40;6.03;;;;;;;;;;4971419;28;20587;-74
2022/10/04 07:44:19;;;;;;;8.47;6.20;;;;;;;;;;4953332;28;20218;-74
2022/10/04 07:46:54;;;;;;;7.93;6.40;;;;;;;;;;4974088;28;20228;-74
2022/10/04 07:49:22;;;;;;;8.30;6.20;;;;;;;;;;4943362;28;20283;-74
2022/10/04 07:52:24;;;;;;;7.47;5.80;;;;;;;;;;4961887;28;20289;-74
2022/10/04 07:55:09;;;;;;;11.40;6.53;;;;;;;;;;4973489;28;20305;-75
2022/10/04 07:58:14;;;;;;;14.57;6.40;;;;;;;;;;4976331;28;20260;-74
2022/10/04 08:01:04;;;;;;;10.07;6.23;;;;;;;;;;4960154;28;20238;-74
2022/10/04 08:03:44;;;;;;;7.50;5.53;;;;;;;;;;4978234;28;20230;-74
2022/10/04 08:06:30;;;;;;;6.43;5.70;;;;;;;;;;4968548;28;20300;-73
2022/10/04 08:09:26;;;;;;;9.70;6.50;;;;;;;;;;4972094;28;20615;-73
2022/10/04 08:12:22;;;;;;;7.00;5.83;;;;;;;;;;4987277;28;20230;-74
2022/10/04 08:15:02;;;;;;;9.23;5.57;;;;;;;;;;5010393;28;20234;-73
2022/10/04 08:17:40;;;;;;;10.57;5.50;;;;;;;;;;4977269;28;20222;-73
2022/10/04 08:20:27;;;;;;;11.63;6.37;;;;;;;;;;4993430;28;20229;-74
2022/10/04 08:23:17;;;;;;;11.50;6.93;;;;;;;;;;4988412;28;20238;-74
2022/10/04 08:26:24;;;;;;;7.87;5.27;;;;;;;;;;4974773;28;20240;-75
2022/10/04 08:32:26;;;;;;;8.67;5.33;;;;;;;;;;4959416;28;20231;-73
2022/10/04 08:34:55;;;;;;;7.13;5.07;;;;;;;;;;4959883;28;20661;-75
2022/10/04 08:37:27;;;;;;;7.83;4.67;;;;;;;;;;4956407;28;20234;-72
2022/10/04 08:40:23;;;;;;;8.53;4.83;;;;;;;;;;4960291;28;20241;-73
2022/10/04 08:43:07;;;;;;;5.50;4.50;;;;;;;;;;4958604;28;20619;-74
2022/10/04 08:46:10;;;;;;;10.23;3.80;;;;;;;;;;4994519;28;20231;-73
2022/10/04 08:48:48;;;;;;;9.10;4.47;;;;;;;;;;4964523;28;20297;-74
2022/10/04 08:51:43;;;;;;;6.43;4.00;;;;;;;;;;4992220;28;20300;-74
2022/10/04 08:54:34;;;;;;;9.53;4.67;;;;;;;;;;4975933;28;20685;-74
2022/10/04 08:57:36;;;;;;;5.97;3.80;;;;;;;;;;4952677;28;20316;-74
2022/10/04 09:00:05;;;;;;;7.13;3.50;;;;;;;;;;4959037;28;20258;-74
2022/10/04 09:02:58;;;;;;;15.73;3.63;;;;;;;;;;4958749;28;20284;-74
2022/10/04 09:06:17;;;;;;;5.60;3.00;;;;;;;;;;4972163;28;20254;-74
2022/10/04 09:09:27;;;;;;;5.72;3.40;;;;;;;;;;4939423;28;20233;-73
2022/10/04 09:12:34;;;;;;;7.80;3.20;;;;;;;;;;4923358;28;20229;-73
2022/10/04 09:15:47;;;;;;;7.18;2.85;;;;;;;;;;4939296;28;20239;-73
2022/10/04 09:18:21;;;;;;;6.97;2.80;;;;;;;;;;4870625;29;20321;-74
2022/10/04 09:21:01;;;;;;;6.55;3.45;;;;;;;;;;4944926;28;20218;-73
2022/10/04 09:23:33;;;;;;;5.75;3.10;;;;;;;;;;4992492;28;20293;-73
2022/10/04 09:26:19;;;;;;;8.07;3.38;;;;;;;;;;4978149;28;20262;-72
2022/10/04 09:29:33;;;;;;;7.38;3.17;;;;;;;;;;4974286;28;20234;-75
2022/10/04 09:32:26;;;;;;;8.45;3.10;;;;;;;;;;4915614;28;20231;-72
2022/10/04 09:35:30;;;;;;;6.68;2.65;;;;;;;;;;4953120;28;20223;-73
2022/10/04 09:38:05;;;;;;;7.53;3.20;;;;;;;;;;4963081;28;20234;-73
2022/10/04 09:40:51;;;;;;;6.53;3.20;;;;;;;;;;4976262;28;20257;-74
2022/10/04 09:43:31;;;;;;;9.02;2.70;;;;;;;;;;4977346;28;20218;-75
2022/10/04 09:46:03;;;;;;;6.22;2.08;;;;;;;;;;4965845;28;20681;-74
2022/10/04 09:48:53;;;;;;;4.38;2.83;;;;;;;;;;4995737;28;20225;-74
2022/10/04 09:51:24;;;;;;;5.68;2.60;;;;;;;;;;4976801;28;20226;-75
2022/10/04 09:54:10;;;;;;;7.85;2.38;;;;;;;;;;4960452;28;20314;-75
2022/10/04 09:57:07;;;;;;;3.95;2.33;;;;;;;;;;4982169;28;20313;-73
2022/10/04 10:00:01;;;;;;;4.88;2.40;;;;;;;;;;4954947;28;20234;-73
2022/10/04 10:03:28;;;;;;;6.40;2.20;;;;;;;;;;4986796;28;20662;-74
2022/10/04 10:05:56;;;;;;;5.97;2.83;;;;;;;;;;4962950;28;20230;-73
2022/10/04 10:08:41;;;;;;;5.68;2.35;;;;;;;;;;4977737;28;20214;-74
2022/10/04 10:14:37;;;;;;;5.72;2.75;;;;;;;;;;4960961;28;20230;-73
2022/10/04 10:17:38;;;;;;;5.82;2.47;;;;;;;;;;4961786;28;20647;-73
2022/10/04 10:20:26;;;;;;;5.60;2.25;;;;;;;;;;4936334;28;20626;-74
2022/10/04 10:23:16;;;;;;;6.63;2.38;;;;;;;;;;4961341;28;20310;-74
2022/10/04 10:26:00;;;;;;;9.30;2.15;;;;;;;;;;4973351;28;20747;-75
2022/10/04 10:28:50;;;;;;;6.53;2.78;;;;;;;;;;4959910;28;20290;-74
2022/10/04 10:31:40;;;;;;;7.13;2.25;;;;;;;;;;4976531;28;20268;-74
2022/10/04 10:34:15;;;;;;;6.70;2.58;;;;;;;;;;4958727;28;20581;-74
2022/10/04 10:37:04;;;;;;;6.88;2.58;;;;;;;;;;4962106;28;20275;-74
2022/10/04 10:39:52;;;;;;;5.00;2.03;;;;;;;;;;4965814;28;20230;-73
2022/10/04 10:42:42;;;;;;;3.47;1.50;;;;;;;;;;4961807;28;20230;-73
2022/10/04 10:45:25;;;;;;;4.25;1.73;;;;;;;;;;4998109;28;20766;-73
2022/10/04 10:48:18;;;;;;;4.72;1.77;;;;;;;;;;4963453;28;20227;-72
2022/10/04 10:50:58;;;;;;;4.50;1.75;;;;;;;;;;4979249;28;20290;-73
2022/10/04 10:54:04;;;;;;;3.80;1.70;;;;;;;;;;4991684;28;20226;-74
2022/10/04 10:56:37;;;;;;;4.65;1.85;;;;;;;;;;4973059;28;20242;-74
2022/10/04 10:59:21;;;;;;;4.68;2.20;;;;;;;;;;4985176;28;20764;-73
2022/10/04 11:02:03;;;;;;;5.03;3.00;;;;;;;;;;4967440;28;20633;-73
2022/10/04 11:05:07;;;;;;;6.30;2.20;;;;;;;;;;4972962;28;20305;-73
2022/10/04 11:07:50;;;;;;;5.28;2.92;;;;;;;;;;4961508;28;20248;-74
2022/10/04 11:10:37;;;;;;;4.78;2.97;;;;;;;;;;4988363;28;20705;-74
2022/10/04 11:13:03;;;;;;;4.07;2.78;;;;;;;;;;4960333;28;20226;-74
2022/10/04 11:15:47;;;;;;;3.47;1.90;;;;;;;;;;4965961;28;20237;-74
2022/10/04 11:18:21;;;;;;;2.67;1.80;;;;;;;;;;4993177;28;20231;-73
2022/10/04 11:21:12;;;;;;;6.88;2.58;;;;;;;;;;4967540;28;20260;-74
2022/10/04 11:24:43;;;;;;;6.28;1.92;;;;;;;;;;4945621;28;20234;-74
2022/10/04 11:27:15;;;;;;;4.82;2.15;;;;;;;;;;4933227;28;20234;-74
2022/10/04 11:29:54;;;;;;;6.82;2.15;;;;;;;;;;4953408;28;20322;-73
2022/10/04 11:32:40;;;;;;;3.92;2.38;;;;;;;;;;4948949;28;20317;-74
2022/10/04 11:35:37;;;;;;;5.45;2.40;;;;;;;;;;4975329;28;20288;-73
2022/10/04 11:38:25;;;;;;;5.15;2.67;;;;;;;;;;4975116;28;20746;-73
2022/10/04 11:41:06;;;;;;;5.22;2.17;;;;;;;;;;4973627;28;20241;-74
2022/10/04 11:44:01;;;;;;;5.95;2.20;;;;;;;;;;4981537;28;20882;-74
2022/10/04 11:46:38;;;;;;;3.33;2.13;;;;;;;;;;4943473;28;20256;-73
2022/10/04 11:49:34;;;;;;;3.65;2.20;;;;;;;;;;4958651;28;20322;-74
2022/10/04 11:52:21;;;;;;;5.18;2.25;;;;;;;;;;4973138;28;20643;-76
2022/10/04 11:55:00;;;;;;;6.13;1.95;;;;;;;;;;4963213;28;20230;-74
2022/10/04 11:57:30;;;;;;;4.38;2.13;;;;;;;;;;4976429;28;20226;-74
2022/10/04 12:00:00;;;;;;;5.72;2.15;;;;;;;;;;4963662;28;20747;-73
2022/10/04 12:02:34;;;;;;;3.35;1.90;;;;;;;;;;4991590;28;20214;-74
2022/10/04 12:05:12;;;;;;;3.63;2.05;;;;;;;;;;4975990;28;20226;-75
2022/10/04 12:08:02;;;;;;;4.72;2.05;;;;;;;;;;4976941;28;20226;-74
2022/10/04 12:10:37;;;;;;;2.90;1.65;;;;;;;;;;4964017;28;20230;-73
2022/10/04 12:13:38;;;;;;;5.38;1.70;;;;;;;;;;4961132;28;20237;-76
2022/10/04 12:16:14;;;;;;;6.30;1.77;;;;;;;;;;4960529;28;20232;-75
2022/10/04 12:19:15;;;;;;;3.33;1.60;;;;;;;;;;4959922;28;20700;-77
2022/10/04 12:21:53;;;;;;;3.13;1.60;;;;;;;;;;4953023;28;20248;-74
2022/10/04 12:24:22;;;;;;;5.85;1.60;;;;;;;;;;4978618;28;20236;-75
2022/10/04 12:27:11;;;;;;;3.97;1.40;;;;;;;;;;4963037;28;20229;-73
2022/10/04 12:30:01;;;;;;;4.72;1.63;;;;;;;;;;4962284;28;20296;-73
2022/10/04 12:32:29;;;;;;;3.38;1.58;;;;;;;;;;4973878;28;20227;-72
2022/10/04 12:35:01;;;;;;;1.50;1.23;;;;;;;;;;4959430;28;20333;-75
2022/10/04 12:37:42;;;;;;;2.15;1.10;;;;;;;;;;4974311;28;20276;-76
2022/10/04 12:40:35;;;;;;;3.15;1.38;;;;;;;;;;4982442;28;20691;-73
2022/10/04 12:43:03;;;;;;;4.13;1.50;;;;;;;;;;4977875;28;20229;-74
2022/10/04 12:45:32;;;;;;;4.32;1.50;;;;;;;;;;4959571;28;20313;-74
2022/10/04 12:48:13;;;;;;;3.58;1.65;;;;;;;;;;4973817;28;20230;-75
2022/10/04 12:50:59;;;;;;;3.72;1.40;;;;;;;;;;4961200;28;20243;-74
2022/10/04 12:53:46;;;;;;;4.90;1.60;;;;;;;;;;4990322;28;20274;-74
2022/10/04 12:56:21;;;;;;;2.50;1.50;;;;;;;;;;4976577;28;20222;-74
2022/10/04 12:59:11;;;;;;;3.50;1.17;;;;;;;;;;4991753;28;20219;-73
2022/10/04 13:01:49;;;;;;;2.70;1.40;;;;;;;;;;4987612;28;20226;-75
2022/10/04 13:04:18;;;;;;;2.88;1.45;;;;;;;;;;4960571;28;20221;-73
2022/10/04 13:07:14;;;;;;;3.05;1.20;;;;;;;;;;4960943;28;20309;-74
2022/10/04 13:09:41;;;;;;;2.38;1.30;;;;;;;;;;4976479;28;20223;-73
2022/10/04 13:12:31;;;;;;;3.33;1.20;;;;;;;;;;4961216;28;20242;-73
2022/10/04 13:14:59;;;;;;;2.30;1.20;;;;;;;;;;4972938;28;20229;-73
2022/10/04 13:17:54;;;;;;;2.65;1.40;;;;;;;;;;4953346;28;20301;-73
2022/10/04 13:20:29;;;;;;;2.88;1.15;;;;;;;;;;4958589;28;20218;-72
2022/10/04 13:23:21;;;;;;;2.17;1.35;;;;;;;;;;4973283;28;20230;-72
2022/10/04 13:26:25;;;;;;;3.00;1.15;;;;;;;;;;4989885;28;20235;-73
2022/10/04 13:29:05;;;;;;;4.40;1.42;;;;;;;;;;4917308;28;20708;-73
2022/10/04 13:31:44;;;;;;;2.30;1.20;;;;;;;;;;4992779;28;20329;-73
2022/10/04 13:34:25;;;;;;;3.03;1.27;;;;;;;;;;4990767;28;20236;-74
2022/10/04 13:36:59;;;;;;;4.07;1.50;;;;;;;;;;4986895;28;20716;-75
2022/10/04 13:39:48;;;;;;;3.53;1.40;;;;;;;;;;4952627;28;20300;-74
2022/10/04 13:42:35;;;;;;;2.97;1.50;;;;;;;;;;4973335;28;20229;-74
2022/10/04 13:45:09;;;;;;;4.35;1.60;;;;;;;;;;4988382;28;20368;-75
2022/10/04 13:47:43;;;;;;;3.05;1.65;;;;;;;;;;4960707;28;20309;-74
2022/10/04 13:50:30;;;;;;;7.63;1.42;;;;;;;;;;4966628;28;20636;-74
2022/10/04 13:56:39;;;;;;;3.78;1.75;;;;;;;;;;4937533;28;20230;-74
2022/10/04 13:59:20;;;;;;;3.63;1.75;;;;;;;;;;4957252;28;20222;-74
2022/10/04 14:02:12;;;;;;;3.47;1.70;;;;;;;;;;4994643;28;20237;-73
2022/10/04 14:04:56;;;;;;;3.53;1.55;;;;;;;;;;4963350;28;20225;-73
2022/10/04 14:07:33;;;;;;;3.97;1.60;;;;;;;;;;4987614;28;20238;-74
2022/10/04 14:10:42;;;;;;;2.25;1.45;;;;;;;;;;4962089;28;20719;-73
2022/10/04 14:13:26;;;;;;;2.38;1.70;;;;;;;;;;4942773;28;20234;-74
2022/10/04 14:15:58;;;;;;;3.05;1.80;;;;;;;;;;4976431;28;20227;-74
2022/10/04 14:18:27;;;;;;;4.72;1.70;;;;;;;;;;4958448;28;20245;-73
2022/10/04 14:21:20;;;;;;;6.53;1.58;;;;;;;;;;4972702;28;20242;-75
2022/10/04 14:24:11;;;;;;;2.15;1.30;;;;;;;;;;4986571;28;20225;-73
2022/10/04 14:26:44;;;;;;;2.25;1.55;;;;;;;;;;4962487;28;20261;-73
2022/10/04 14:29:29;;;;;;;5.30;2.78;;;;;;;;;;4961102;28;20234;-71
2022/10/04 14:32:12;;;;;;;6.57;2.50;;;;;;;;;;4975846;28;20230;-73
2022/10/04 14:35:06;;;;;;;2.60;2.22;;;;;;;;;;4991488;28;20231;-74
2022/10/04 14:37:32;;;;;;;4.70;2.30;;;;;;;;;;4992715;28;20250;-73
2022/10/04 14:40:18;;;;;;;4.35;2.95;;;;;;;;;;4977802;28;20696;-74
2022/10/04 14:43:08;;;;;;;3.50;2.13;;;;;;;;;;4959757;28;20696;-71
2022/10/04 14:46:12;;;;;;;3.30;2.03;;;;;;;;;;4977043;28;20807;-72
2022/10/04 14:49:01;;;;;;;2.17;1.90;;;;;;;;;;4959817;28;20296;-71
2022/10/04 14:52:05;;;;;;;2.67;1.90;;;;;;;;;;4960456;28;20900;-73
2022/10/04 14:54:49;;;;;;;3.55;1.83;;;;;;;;;;4969159;28;20681;-72
2022/10/04 14:57:26;;;;;;;1.85;1.60;;;;;;;;;;4990359;28;20219;-72
2022/10/04 15:00:46;;;;;;;2.83;1.90;;;;;;;;;;4979543;28;20248;-72
2022/10/04 15:03:37;;;;;;;3.45;1.60;;;;;;;;;;4956379;28;20223;-72
2022/10/04 15:06:32;;;;;;;3.08;1.60;;;;;;;;;;4989365;28;20222;-73
2022/10/04 15:09:25;;;;;;;3.40;1.90;;;;;;;;;;4958031;28;20654;-72
2022/10/04 15:11:56;;;;;;;3.45;1.52;;;;;;;;;;4961009;28;20234;-73
2022/10/04 15:15:25;;;;;;;2.95;1.55;;;;;;;;;;4959407;28;20231;-73
2022/10/04 15:17:50;;;;;;;2.72;1.42;;;;;;;;;;4928213;28;20230;-74
2022/10/04 15:20:34;;;;;;;2.83;1.55;;;;;;;;;;4942457;28;20589;-73
2022/10/04 15:23:00;;;;;;;2.22;1.60;;;;;;;;;;4953737;28;20248;-73
2022/10/04 15:25:45;;;;;;;2.40;1.27;;;;;;;;;;4994128;28;20226;-72
2022/10/04 15:28:16;;;;;;;4.00;1.30;;;;;;;;;;4991415;28;20602;-74
2022/10/04 15:31:09;;;;;;;3.13;1.50;;;;;;;;;;4975789;28;20231;-73
2022/10/04 15:33:53;;;;;;;2.75;1.50;;;;;;;;;;4959774;28;20226;-74
2022/10/04 15:36:37;;;;;;;3.55;1.58;;;;;;;;;;4973615;28;20339;-73
2022/10/04 15:39:27;;;;;;;2.00;1.55;;;;;;;;;;4991405;28;20271;-73
2022/10/04 15:42:11;;;;;;;2.92;1.30;;;;;;;;;;4961534;28;20230;-74
2022/10/04 15:44:42;;;;;;;3.05;1.50;;;;;;;;;;4973546;28;20227;-72
2022/10/04 15:47:26;;;;;;;2.50;1.42;;;;;;;;;;4961842;28;20234;-73
2022/10/04 15:50:23;;;;;;;7.55;4.97;;;;;;;;;;4978516;28;20712;-71
2022/10/04 15:53:03;;;;;;;15.63;13.95;;;;;;;;;;4965575;28;20708;-72
2022/10/04 15:55:51;;;;;;;5.45;3.85;;;;;;;;;;4980982;28;20254;-73
2022/10/04 15:58:43;;;;;;;3.95;1.60;;;;;;;;;;4991564;28;20245;-71
2022/10/04 16:01:25;;;;;;;4.55;1.63;;;;;;;;;;4968856;28;20252;-73
2022/10/04 16:04:10;;;;;;;3.00;1.60;;;;;;;;;;4977053;28;20731;-73
2022/10/04 16:06:55;;;;;;;2.17;1.52;;;;;;;;;;4977538;28;20233;-72
2022/10/04 16:09:36;;;;;;;3.03;1.50;;;;;;;;;;4960982;28;20633;-72